Time;durP1;ratioP1;P1;durP2;ratioP2;P2;SDS_P1;SDS_P2;PMS_P1;PMS_P2;Temp;Humidity;BMP_temperature;BMP_pressure;BME280_temperature;BME280_humidity;BME280_pressure;Samples;Min_cycle;Max_cycle;Signal;HPM_P1;HPM_P2
2024/01/27 00:01:12;;;;;;;14.43;7.60;;;;;;;13.78;59.29;97386.16;5056351;28;20073;-30
2024/01/27 00:03:38;;;;;;;15.02;7.32;;;;;;;13.56;59.86;97374.19;5038831;28;20025;-31
2024/01/27 00:06:03;;;;;;;13.55;6.88;;;;;;;13.64;59.39;97376.34;5056635;28;20013;-31
2024/01/27 00:08:29;;;;;;;15.55;7.40;;;;;;;13.71;59.12;97366.47;5056319;28;20170;-31
2024/01/27 00:10:54;;;;;;;15.80;8.13;;;;;;;13.68;59.33;97368.09;5056255;28;20388;-31
2024/01/27 00:13:20;;;;;;;15.10;8.30;;;;;;;13.55;59.98;97378.13;5056317;28;20017;-30
2024/01/27 00:15:45;;;;;;;14.50;7.78;;;;;;;13.79;59.11;97376.03;5056241;28;20473;-30
2024/01/27 00:18:10;;;;;;;17.02;8.02;;;;;;;13.53;60.17;97375.81;5056255;28;20384;-30
2024/01/27 00:20:37;;;;;;;14.70;7.28;;;;;;;13.58;59.49;97382.72;5056379;28;20365;-31
2024/01/27 00:23:03;;;;;;;16.75;7.47;;;;;;;13.41;60.22;97381.91;5039547;28;20459;-30
2024/01/27 00:25:28;;;;;;;13.25;7.32;;;;;;;13.68;59.50;97391.84;5061313;28;20021;-30
2024/01/27 00:27:54;;;;;;;18.17;7.78;;;;;;;13.45;60.14;97384.56;5055899;28;20389;-30
2024/01/27 00:30:19;;;;;;;11.90;7.22;;;;;;;13.69;59.64;97377.81;5056107;28;20067;-30
2024/01/27 00:32:45;;;;;;;11.45;6.47;;;;;;;13.64;59.74;97386.47;5056243;28;20028;-30
2024/01/27 00:35:14;;;;;;;11.38;6.80;;;;;;;13.68;59.69;97381.72;5062704;28;20028;-31
2024/01/27 00:37:40;;;;;;;12.40;6.60;;;;;;;13.75;59.16;97387.00;5062922;28;20100;-31
2024/01/27 00:40:08;;;;;;;15.23;6.85;;;;;;;13.89;59.14;97383.19;5055954;28;20061;-30
2024/01/27 00:42:34;;;;;;;13.38;7.07;;;;;;;13.76;59.24;97390.50;5055599;28;20041;-31
2024/01/27 00:44:59;;;;;;;13.50;6.95;;;;;;;13.82;59.35;97392.31;5055896;28;20021;-31
2024/01/27 00:47:24;;;;;;;15.02;7.53;;;;;;;13.78;59.38;97407.19;5055608;28;20063;-31
2024/01/27 00:49:50;;;;;;;14.18;6.60;;;;;;;13.36;60.06;97403.41;5060603;28;20536;-30
2024/01/27 00:52:15;;;;;;;14.43;6.72;;;;;;;13.66;59.28;97400.47;5058039;28;20054;-30
2024/01/27 00:54:41;;;;;;;13.32;6.97;;;;;;;13.69;59.40;97394.16;5055881;28;20036;-30
2024/01/27 00:57:06;;;;;;;10.88;6.10;;;;;;;13.54;59.96;97392.94;5055339;28;20078;-31
2024/01/27 00:59:32;;;;;;;9.63;5.57;;;;;;;13.48;59.79;97391.88;5055693;28;20373;-31
2024/01/27 01:01:57;;;;;;;10.60;5.60;;;;;;;13.38;60.41;97385.47;5055075;28;20396;-31
2024/01/27 01:04:23;;;;;;;9.35;4.93;;;;;;;13.61;59.61;97388.09;5055382;28;20070;-31
2024/01/27 01:06:48;;;;;;;10.07;5.70;;;;;;;13.79;59.03;97395.88;5055728;28;20040;-30
2024/01/27 01:09:13;;;;;;;12.02;6.45;;;;;;;13.52;59.86;97392.59;5055246;28;20025;-30
2024/01/27 01:11:39;;;;;;;9.73;5.60;;;;;;;13.74;59.40;97381.97;5055430;28;20028;-31
2024/01/27 01:14:04;;;;;;;10.60;5.95;;;;;;;13.57;59.63;97390.13;5055209;28;20021;-31
2024/01/27 01:16:30;;;;;;;11.32;5.53;;;;;;;13.48;59.99;97397.31;5055108;28;20024;-30
2024/01/27 01:18:55;;;;;;;9.65;4.43;;;;;;;13.64;59.00;97387.25;5055166;28;20037;-30
2024/01/27 01:21:21;;;;;;;8.15;4.63;;;;;;;13.66;59.17;97395.00;5054955;28;20104;-31
2024/01/27 01:23:46;;;;;;;8.98;4.05;;;;;;;13.64;59.32;97387.25;5055505;28;20048;-30
2024/01/27 01:26:12;;;;;;;6.97;4.32;;;;;;;13.65;59.08;97388.00;5054977;28;20500;-31
2024/01/27 01:28:37;;;;;;;6.63;4.40;;;;;;;13.76;58.70;97399.44;5054894;28;20021;-30
2024/01/27 01:31:05;;;;;;;5.40;3.90;;;;;;;13.55;59.24;97389.78;5055200;28;20021;-32
2024/01/27 01:33:31;;;;;;;7.75;4.70;;;;;;;13.68;58.86;97392.63;5054788;28;20029;-31
2024/01/27 01:35:56;;;;;;;8.80;4.32;;;;;;;13.70;58.85;97395.69;5054549;28;20024;-31
2024/01/27 01:38:22;;;;;;;9.05;3.72;;;;;;;13.43;59.74;97408.75;5056717;28;20017;-30
2024/01/27 01:40:47;;;;;;;8.05;4.82;;;;;;;13.70;58.71;97403.88;5059366;28;20095;-31
2024/01/27 01:43:13;;;;;;;6.07;4.53;;;;;;;13.63;59.27;97418.41;5061743;28;20052;-30
2024/01/27 01:45:38;;;;;;;9.90;4.63;;;;;;;13.42;59.49;97405.25;5053938;28;20032;-31
2024/01/27 01:48:05;;;;;;;7.40;5.00;;;;;;;13.74;58.73;97401.81;5054555;28;20040;-30
2024/01/27 01:50:31;;;;;;;9.68;4.75;;;;;;;13.67;59.37;97399.25;5054428;28;20421;-30
2024/01/27 01:52:57;;;;;;;10.05;4.80;;;;;;;13.65;59.19;97399.69;5054507;28;20501;-30
2024/01/27 01:55:23;;;;;;;6.15;4.70;;;;;;;13.64;59.01;97392.69;5061438;28;20145;-31
2024/01/27 01:57:49;;;;;;;9.70;5.47;;;;;;;13.45;59.53;97390.78;5054728;28;20552;-31
2024/01/27 02:00:15;;;;;;;9.13;4.75;;;;;;;13.46;59.33;97388.84;5054677;28;20067;-30
2024/01/27 02:02:46;;;;;;;8.73;5.10;;;;;;;13.67;58.50;97393.81;5053849;28;20109;-31
2024/01/27 02:05:14;;;;;;;9.38;4.90;;;;;;;13.50;59.47;97386.78;5054262;28;20465;-30
2024/01/27 02:07:40;;;;;;;7.72;4.82;;;;;;;13.59;58.60;97389.72;5053971;28;20063;-31
2024/01/27 02:10:12;;;;;;;8.63;4.35;;;;;;;13.64;58.48;97391.94;5054170;28;20020;-30
2024/01/27 02:12:38;;;;;;;9.70;5.10;;;;;;;13.88;58.03;97379.69;5054718;28;20469;-30
2024/01/27 02:15:04;;;;;;;9.68;5.18;;;;;;;13.78;58.10;97375.25;5054472;28;20025;-31
2024/01/27 02:17:29;;;;;;;7.90;4.95;;;;;;;13.59;58.48;97368.69;5054006;28;20032;-30
2024/01/27 02:19:55;;;;;;;11.85;6.15;;;;;;;13.70;58.15;97371.16;5053736;28;20033;-30
2024/01/27 02:22:20;;;;;;;9.50;5.90;;;;;;;13.76;58.28;97361.28;5053561;28;20040;-31
2024/01/27 02:24:46;;;;;;;9.60;5.85;;;;;;;13.65;58.31;97369.69;5053920;28;20028;-30
2024/01/27 02:27:12;;;;;;;9.10;5.53;;;;;;;13.44;59.26;97361.22;5061653;28;20029;-31
2024/01/27 02:29:37;;;;;;;14.23;6.10;;;;;;;13.60;58.70;97374.88;5053742;28;20025;-32
2024/01/27 02:32:04;;;;;;;12.75;6.30;;;;;;;13.64;58.38;97368.16;5061540;28;20021;-32
2024/01/27 02:34:29;;;;;;;11.50;6.18;;;;;;;13.55;58.37;97376.16;5053719;28;20016;-30
2024/01/27 02:36:55;;;;;;;11.95;6.10;;;;;;;13.70;58.07;97384.03;5053809;28;20028;-30
2024/01/27 02:39:21;;;;;;;14.20;6.32;;;;;;;13.67;57.98;97369.28;5054186;28;20388;-31
2024/01/27 02:41:47;;;;;;;11.48;6.97;;;;;;;13.70;57.93;97368.44;5053769;28;20028;-31
2024/01/27 02:44:12;;;;;;;10.50;6.60;;;;;;;13.54;58.27;97373.84;5053929;28;20025;-30
2024/01/27 02:46:37;;;;;;;9.52;6.30;;;;;;;13.59;58.44;97384.28;5056980;28;20073;-30
2024/01/27 02:49:03;;;;;;;13.07;7.00;;;;;;;13.71;57.66;97375.44;5057423;28;20017;-30
2024/01/27 02:51:28;;;;;;;9.80;6.28;;;;;;;13.52;58.34;97374.28;5053411;28;20021;-30
2024/01/27 02:53:54;;;;;;;10.27;6.57;;;;;;;13.61;58.13;97373.69;5053205;28;20810;-30
2024/01/27 02:56:19;;;;;;;9.27;6.10;;;;;;;13.42;58.52;97382.69;5050098;28;20087;-30
2024/01/27 02:58:45;;;;;;;10.95;5.85;;;;;;;13.55;58.47;97369.94;5053216;28;20025;-31
2024/01/27 03:01:10;;;;;;;9.27;6.20;;;;;;;13.50;58.20;97384.06;5053217;28;20041;-30
2024/01/27 03:03:35;;;;;;;11.05;6.25;;;;;;;13.50;58.09;97378.59;5053652;28;20029;-30
2024/01/27 03:06:01;;;;;;;12.38;6.22;;;;;;;13.52;57.33;97385.16;5053085;28;20060;-31
2024/01/27 03:08:26;;;;;;;8.80;5.65;;;;;;;13.62;57.49;97386.13;5053348;28;20005;-30
2024/01/27 03:10:52;;;;;;;9.00;5.70;;;;;;;13.45;58.03;97398.97;5053148;28;20020;-31
2024/01/27 03:13:18;;;;;;;10.73;6.15;;;;;;;13.29;58.61;97388.00;5053725;28;20028;-30
2024/01/27 03:15:44;;;;;;;8.77;5.90;;;;;;;13.63;57.36;97393.88;5053822;28;20025;-31
2024/01/27 03:18:09;;;;;;;10.20;6.43;;;;;;;13.48;57.62;97400.06;5053195;28;20081;-31
2024/01/27 03:20:35;;;;;;;10.00;5.85;;;;;;;13.55;57.19;97394.47;5042773;28;20039;-32
2024/01/27 03:23:00;;;;;;;11.38;5.90;;;;;;;13.28;58.18;97406.31;5053007;28;20028;-30
2024/01/27 03:25:26;;;;;;;11.15;6.47;;;;;;;13.59;57.05;97409.56;5049470;28;20021;-30
2024/01/27 03:27:52;;;;;;;12.38;6.50;;;;;;;13.58;57.28;97396.34;5053651;28;20032;-31
2024/01/27 03:30:17;;;;;;;11.60;6.85;;;;;;;13.41;57.71;97389.31;5053145;28;20021;-31
2024/01/27 03:32:43;;;;;;;10.57;5.80;;;;;;;13.51;57.24;97383.63;5053897;28;20021;-30
2024/01/27 03:35:08;;;;;;;11.88;6.53;;;;;;;13.34;58.08;97384.78;5053374;28;20025;-30
2024/01/27 03:37:34;;;;;;;11.52;5.68;;;;;;;13.49;57.33;97382.50;5052833;28;20074;-30
2024/01/27 03:40:00;;;;;;;9.45;6.43;;;;;;;13.40;58.01;97387.78;5049640;28;20477;-31
2024/01/27 03:42:26;;;;;;;11.55;6.03;;;;;;;13.58;57.05;97390.91;5060031;28;20083;-31
2024/01/27 03:44:52;;;;;;;10.77;6.18;;;;;;;13.25;58.10;97395.47;5052918;28;20025;-33
2024/01/27 03:47:17;;;;;;;9.63;6.05;;;;;;;13.41;57.28;97389.31;5053054;28;20396;-30
2024/01/27 03:49:43;;;;;;;8.98;5.60;;;;;;;13.42;57.45;97388.13;5053357;28;20095;-31
2024/01/27 03:52:08;;;;;;;11.25;5.93;;;;;;;13.24;57.80;97386.53;5059864;28;20016;-30
2024/01/27 03:54:34;;;;;;;11.98;6.50;;;;;;;13.30;57.65;97375.91;5052935;28;20020;-30
2024/01/27 03:56:59;;;;;;;12.90;6.25;;;;;;;13.42;57.19;97372.53;5053227;28;20053;-31
2024/01/27 03:59:25;;;;;;;8.98;6.05;;;;;;;13.26;57.60;97378.72;5052969;28;20469;-30
2024/01/27 04:01:50;;;;;;;9.02;5.35;;;;;;;13.51;56.95;97393.75;5052615;28;20061;-30
2024/01/27 04:04:16;;;;;;;10.00;6.13;;;;;;;13.50;56.94;97392.22;5052800;28;20056;-30
2024/01/27 04:06:42;;;;;;;9.45;5.80;;;;;;;13.45;57.08;97390.03;5052732;28;20028;-30
2024/01/27 04:09:10;;;;;;;9.63;5.72;;;;;;;13.29;57.44;97393.44;5050912;28;20053;-30
2024/01/27 04:11:36;;;;;;;10.45;5.97;;;;;;;13.37;57.08;97394.06;5056336;28;20017;-30
2024/01/27 04:14:03;;;;;;;8.52;5.18;;;;;;;13.25;57.76;97403.66;5056939;28;20019;-31
2024/01/27 04:16:29;;;;;;;10.13;6.10;;;;;;;13.35;57.00;97385.56;5056278;28;20047;-30
2024/01/27 04:18:55;;;;;;;10.18;5.72;;;;;;;13.25;57.26;97370.94;5063296;28;20440;-30
2024/01/27 04:21:20;;;;;;;11.85;5.95;;;;;;;13.35;57.12;97369.22;5056613;28;20078;-30
2024/01/27 04:23:46;;;;;;;10.30;5.85;;;;;;;13.30;57.20;97367.75;5055974;28;20021;-30
2024/01/27 04:26:11;;;;;;;11.27;6.40;;;;;;;13.34;57.13;97373.13;5056616;28;20444;-31
2024/01/27 04:28:37;;;;;;;10.65;6.40;;;;;;;13.61;56.17;97376.41;5056013;28;20113;-31
2024/01/27 04:31:03;;;;;;;9.57;5.88;;;;;;;13.21;57.15;97365.59;5055695;28;20033;-31
2024/01/27 04:33:28;;;;;;;12.98;6.13;;;;;;;13.24;57.13;97375.63;5056159;28;20020;-30
2024/01/27 04:35:54;;;;;;;7.95;5.70;;;;;;;13.35;56.79;97369.22;5055646;28;20021;-30
2024/01/27 04:38:19;;;;;;;9.57;5.60;;;;;;;12.95;57.79;97363.75;5056258;28;20028;-30
2024/01/27 04:40:45;;;;;;;12.27;5.95;;;;;;;13.31;56.86;97377.47;5056263;28;20108;-30
2024/01/27 04:43:14;;;;;;;12.05;6.13;;;;;;;13.40;56.74;97377.66;5055621;28;20051;-30
2024/01/27 04:45:40;;;;;;;9.82;5.82;;;;;;;13.39;56.72;97394.41;5055946;28;20020;-30
2024/01/27 04:48:05;;;;;;;12.52;6.70;;;;;;;13.19;57.50;97389.75;5055660;28;20534;-30
2024/01/27 04:50:31;;;;;;;11.45;6.43;;;;;;;13.40;56.66;97394.00;5056190;28;20025;-31
2024/01/27 04:52:56;;;;;;;10.50;6.63;;;;;;;13.26;57.03;97392.31;5055827;28;20107;-30
2024/01/27 04:55:22;;;;;;;13.40;7.13;;;;;;;13.09;57.78;97379.81;5062935;28;20083;-31
2024/01/27 04:57:47;;;;;;;9.90;6.38;;;;;;;13.50;56.63;97378.59;5055420;28;20488;-30
2024/01/27 05:00:13;;;;;;;13.48;6.95;;;;;;;13.47;56.15;97384.91;5055344;28;20044;-30
2024/01/27 05:02:42;;;;;;;10.93;7.07;;;;;;;13.34;56.69;97390.25;5055144;28;20033;-30
2024/01/27 05:05:08;;;;;;;9.65;6.20;;;;;;;13.22;56.90;97382.72;5055247;28;20027;-31
2024/01/27 05:07:34;;;;;;;11.07;6.30;;;;;;;13.23;57.04;97395.88;5055614;28;20021;-30
2024/01/27 05:10:00;;;;;;;9.93;6.88;;;;;;;13.17;56.67;97385.91;5055791;28;20017;-30
2024/01/27 05:12:25;;;;;;;13.50;7.43;;;;;;;13.39;56.36;97397.13;5055401;28;20074;-30
2024/01/27 05:14:51;;;;;;;11.05;7.25;;;;;;;13.26;56.54;97405.94;5055321;28;20021;-30
2024/01/27 05:17:16;;;;;;;11.07;6.30;;;;;;;13.30;56.20;97401.22;5054955;28;20028;-30
2024/01/27 05:19:42;;;;;;;14.18;7.55;;;;;;;13.13;56.34;97418.63;5055346;28;20029;-30
2024/01/27 05:22:07;;;;;;;11.43;6.70;;;;;;;13.21;56.60;97397.50;5054917;28;20099;-30
2024/01/27 05:24:36;;;;;;;13.40;7.60;;;;;;;13.27;56.44;97395.81;5062143;28;20033;-31
2024/01/27 05:27:01;;;;;;;12.95;7.20;;;;;;;13.29;56.37;97391.50;5055194;28;20067;-30
2024/01/27 05:29:28;;;;;;;11.40;7.90;;;;;;;13.10;56.70;97384.09;5055003;28;20021;-30
2024/01/27 05:31:54;;;;;;;11.70;7.82;;;;;;;13.17;56.48;97381.25;5054841;28;20026;-30
2024/01/27 05:34:19;;;;;;;14.75;7.88;;;;;;;13.07;56.61;97390.38;5062218;28;20032;-31
2024/01/27 05:36:45;;;;;;;13.10;7.53;;;;;;;13.10;56.38;97384.09;5054791;28;20346;-31
2024/01/27 05:39:10;;;;;;;10.43;7.65;;;;;;;13.03;56.92;97392.38;5055152;28;20029;-30
2024/01/27 05:41:36;;;;;;;12.65;8.43;;;;;;;12.93;57.14;97390.63;5054747;28;20060;-31
2024/01/27 05:44:01;;;;;;;15.45;7.70;;;;;;;13.15;56.45;97391.78;5054869;28;20025;-30
2024/01/27 05:46:26;;;;;;;14.25;8.10;;;;;;;13.04;56.72;97391.19;5054323;28;20494;-30
2024/01/27 05:48:53;;;;;;;14.13;7.80;;;;;;;13.11;56.48;97377.44;5054578;28;20431;-31
2024/01/27 05:51:20;;;;;;;12.32;7.80;;;;;;;13.04;56.48;97390.44;5054334;28;20021;-31
2024/01/27 05:53:46;;;;;;;16.80;9.38;;;;;;;13.11;56.50;97380.16;5054179;28;20481;-31
2024/01/27 05:56:11;;;;;;;15.07;8.30;;;;;;;13.05;56.37;97392.72;5054975;28;20120;-30
2024/01/27 05:58:37;;;;;;;15.88;8.48;;;;;;;13.16;56.41;97379.69;5054629;28;20482;-30
2024/01/27 06:01:03;;;;;;;19.05;8.98;;;;;;;13.07;56.42;97386.88;5054104;28;20041;-30
2024/01/27 06:03:28;;;;;;;14.52;8.32;;;;;;;13.05;56.21;97394.69;5054484;28;20025;-30
2024/01/27 06:05:54;;;;;;;13.00;8.40;;;;;;;12.87;56.33;97384.91;5053998;28;20021;-30
2024/01/27 06:08:19;;;;;;;13.98;8.55;;;;;;;13.00;56.44;97381.53;5054248;28;20072;-31
2024/01/27 06:10:46;;;;;;;14.32;8.88;;;;;;;13.03;56.17;97394.34;5054151;28;20025;-30
2024/01/27 06:13:11;;;;;;;13.00;8.32;;;;;;;13.06;56.53;97404.41;5054741;28;20021;-30
2024/01/27 06:15:36;;;;;;;13.48;7.75;;;;;;;12.90;56.70;97400.41;5054433;28;20035;-32
2024/01/27 06:18:02;;;;;;;13.13;8.95;;;;;;;12.85;56.75;97400.13;5061156;28;20067;-31
2024/01/27 06:20:27;;;;;;;15.13;8.52;;;;;;;13.02;56.40;97399.00;5053871;28;20108;-30
2024/01/27 06:22:53;;;;;;;14.27;9.07;;;;;;;12.80;57.08;97403.31;5053705;28;20051;-30
2024/01/27 06:25:20;;;;;;;14.57;8.63;;;;;;;12.86;56.48;97404.38;5053772;28;20473;-30
2024/01/27 06:27:46;;;;;;;14.95;8.95;;;;;;;12.86;56.66;97404.38;5053676;28;20036;-31
2024/01/27 06:30:12;;;;;;;18.52;9.43;;;;;;;12.83;56.71;97414.16;5061052;28;20016;-30
2024/01/27 06:32:37;;;;;;;14.75;8.75;;;;;;;12.99;56.23;97429.78;5061082;28;20364;-30
2024/01/27 06:35:04;;;;;;;15.15;9.07;;;;;;;12.90;56.26;97424.13;5053864;28;20032;-32
2024/01/27 06:37:29;;;;;;;12.68;8.93;;;;;;;12.80;56.93;97422.38;5053644;28;20178;-30
2024/01/27 06:39:55;;;;;;;12.75;8.35;;;;;;;12.71;56.93;97419.44;5050257;28;20481;-31
2024/01/27 06:42:20;;;;;;;17.35;8.23;;;;;;;12.67;57.20;97424.16;5053701;28;20110;-30
2024/01/27 06:44:46;;;;;;;17.90;8.95;;;;;;;12.79;56.51;97418.13;5053682;28;20473;-30
2024/01/27 06:47:11;;;;;;;15.02;9.30;;;;;;;12.76;56.85;97418.94;5053725;28;20048;-31
2024/01/27 06:49:37;;;;;;;15.18;8.82;;;;;;;12.77;56.07;97415.81;5035688;28;20039;-30
2024/01/27 06:52:03;;;;;;;16.40;8.55;;;;;;;12.77;56.18;97412.31;5053442;28;20017;-32
2024/01/27 06:54:28;;;;;;;16.35;8.95;;;;;;;12.73;56.29;97417.84;5053895;28;20029;-30
2024/01/27 06:56:53;;;;;;;14.52;9.02;;;;;;;12.74;56.77;97426.75;5053352;28;20031;-30
2024/01/27 06:59:19;;;;;;;13.52;8.35;;;;;;;13.07;55.98;97435.88;5053553;28;20021;-31
2024/01/27 07:01:48;;;;;;;14.57;8.50;;;;;;;12.79;56.39;97445.34;5053724;28;20044;-30
2024/01/27 07:04:14;;;;;;;14.80;8.43;;;;;;;12.85;56.04;97441.75;5053192;28;20032;-31
2024/01/27 07:06:40;;;;;;;16.75;9.05;;;;;;;12.69;56.62;97449.03;5053439;28;20021;-31
2024/01/27 07:09:06;;;;;;;14.63;9.52;;;;;;;12.67;56.89;97451.38;5053332;28;20021;-30
2024/01/27 07:11:32;;;;;;;13.50;8.95;;;;;;;12.80;56.50;97457.78;5053283;28;20021;-31
2024/01/27 07:13:58;;;;;;;14.02;8.98;;;;;;;12.84;56.10;97463.94;5054181;28;20024;-30
2024/01/27 07:16:24;;;;;;;14.63;8.60;;;;;;;12.90;55.86;97470.41;5052960;28;20025;-31
2024/01/27 07:18:50;;;;;;;15.70;8.30;;;;;;;12.78;56.33;97465.56;5053217;28;20021;-30
2024/01/27 07:21:17;;;;;;;11.70;7.80;;;;;;;12.99;55.80;97467.16;5053059;28;20025;-30
2024/01/27 07:23:43;;;;;;;12.20;7.90;;;;;;;12.84;56.16;97469.38;5053383;28;20028;-30
2024/01/27 07:26:09;;;;;;;12.75;7.70;;;;;;;12.73;56.64;97468.78;5053488;28;20377;-30
2024/01/27 07:28:35;;;;;;;14.25;8.20;;;;;;;12.91;56.38;97485.56;5053363;28;20405;-30
2024/01/27 07:31:00;;;;;;;12.90;7.65;;;;;;;12.79;56.71;97475.28;5053389;28;20025;-30
2024/01/27 07:33:26;;;;;;;14.80;8.30;;;;;;;12.87;56.27;97482.13;5053119;28;20013;-30
2024/01/27 07:35:51;;;;;;;15.60;8.40;;;;;;;12.79;56.71;97492.38;5053489;28;20071;-30
2024/01/27 07:38:17;;;;;;;14.35;7.47;;;;;;;12.86;56.87;97480.59;5053081;28;20051;-30
2024/01/27 07:40:42;;;;;;;14.52;8.40;;;;;;;12.76;56.91;97479.59;5052893;28;20028;-30
2024/01/27 07:43:08;;;;;;;13.32;8.32;;;;;;;12.98;56.37;97473.81;5053283;28;20025;-30
2024/01/27 07:45:33;;;;;;;13.57;7.47;;;;;;;12.98;56.39;97482.75;5056603;28;20048;-31
2024/01/27 07:47:58;;;;;;;14.50;8.18;;;;;;;13.00;56.40;97485.78;5064207;28;20025;-30
2024/01/27 07:50:24;;;;;;;18.25;9.30;;;;;;;12.92;56.68;97479.72;5056915;28;20366;-30
2024/01/27 07:52:49;;;;;;;12.27;7.70;;;;;;;12.82;57.11;97479.91;5056705;28;20023;-30
2024/01/27 07:55:17;;;;;;;13.10;6.93;;;;;;;12.94;57.11;97484.75;5056641;28;20119;-31
2024/01/27 07:57:42;;;;;;;14.48;7.40;;;;;;;12.92;57.04;97489.84;5063813;28;20090;-30
2024/01/27 08:00:08;;;;;;;12.80;7.32;;;;;;;13.05;56.86;97492.72;5057111;28;20033;-30
2024/01/27 08:02:34;;;;;;;13.57;7.68;;;;;;;13.23;56.47;97487.72;5056524;28;20400;-32
2024/01/27 08:04:59;;;;;;;14.98;7.65;;;;;;;13.14;56.52;97479.31;5056643;28;20028;-30
2024/01/27 08:07:25;;;;;;;12.13;6.97;;;;;;;13.18;56.87;97486.28;5053157;28;20028;-30
2024/01/27 08:09:50;;;;;;;14.40;7.38;;;;;;;13.26;56.31;97484.94;5056323;28;20036;-31
2024/01/27 08:12:16;;;;;;;16.63;8.48;;;;;;;13.12;57.08;97487.91;5056495;28;20012;-30
2024/01/27 08:14:41;;;;;;;14.55;7.65;;;;;;;12.88;57.91;97487.16;5056869;28;20476;-30
2024/01/27 08:17:07;;;;;;;15.38;9.70;;;;;;;13.16;57.25;97491.38;5056706;28;20040;-30
2024/01/27 08:19:32;;;;;;;12.20;8.15;;;;;;;12.91;57.61;97499.19;5056600;28;20036;-30
2024/01/27 08:21:58;;;;;;;13.77;7.47;;;;;;;12.93;58.24;97500.31;5055959;28;20026;-30
2024/01/27 08:24:24;;;;;;;13.18;7.93;;;;;;;13.03;57.44;97505.97;5056448;28;20490;-32
2024/01/27 08:26:50;;;;;;;12.45;7.63;;;;;;;13.20;57.01;97494.81;5056024;28;20044;-30
2024/01/27 08:29:16;;;;;;;13.80;7.28;;;;;;;13.36;56.53;97502.28;5056085;28;20020;-30
2024/01/27 08:31:41;;;;;;;14.15;7.82;;;;;;;13.15;56.97;97500.72;5056016;28;20079;-30
2024/01/27 08:34:07;;;;;;;12.77;7.40;;;;;;;13.13;57.39;97503.06;5056315;28;20036;-30
2024/01/27 08:36:34;;;;;;;16.80;7.25;;;;;;;13.13;57.55;97505.78;5056185;28;20025;-31
2024/01/27 08:38:59;;;;;;;12.57;6.95;;;;;;;13.05;57.93;97512.56;5055765;28;20476;-31
2024/01/27 08:41:25;;;;;;;12.82;6.60;;;;;;;13.35;57.10;97519.84;5056308;28;20025;-30
2024/01/27 08:43:51;;;;;;;12.93;7.10;;;;;;;13.23;57.35;97526.63;5037908;28;20400;-30
2024/01/27 08:46:19;;;;;;;13.60;6.50;;;;;;;13.19;57.70;97520.50;5055916;28;20025;-31
2024/01/27 08:48:45;;;;;;;12.02;6.68;;;;;;;13.32;57.26;97522.63;5056063;28;20025;-31
2024/01/27 08:51:11;;;;;;;8.98;5.80;;;;;;;13.42;56.77;97518.91;5055375;28;20048;-31
2024/01/27 08:53:37;;;;;;;8.88;6.00;;;;;;;13.37;57.12;97524.84;5056200;28;20021;-30
2024/01/27 08:56:03;;;;;;;9.32;5.35;;;;;;;13.58;56.71;97536.13;5055110;28;20107;-31
2024/01/27 08:58:28;;;;;;;10.18;5.90;;;;;;;13.30;57.38;97534.69;5055644;28;20025;-32
2024/01/27 09:00:54;;;;;;;9.48;7.03;;;;;;;13.49;57.30;97535.13;5055631;28;20487;-30
2024/01/27 09:03:22;;;;;;;12.63;7.75;;;;;;;13.58;56.87;97535.34;5055869;28;20021;-30
2024/01/27 09:05:48;;;;;;;15.98;9.57;;;;;;;13.57;56.74;97536.53;5055972;28;20024;-31
2024/01/27 09:08:14;;;;;;;14.30;8.73;;;;;;;13.64;56.79;97539.88;5055150;28;20049;-31
2024/01/27 09:10:39;;;;;;;14.32;9.82;;;;;;;13.68;56.76;97537.09;5055617;28;20029;-31
2024/01/27 09:13:05;;;;;;;15.27;9.43;;;;;;;13.90;56.46;97545.63;5055639;28;20020;-31
2024/01/27 09:15:31;;;;;;;15.27;10.10;;;;;;;13.93;55.88;97550.22;5055362;28;20024;-31
2024/01/27 09:17:56;;;;;;;16.38;10.02;;;;;;;13.85;56.35;97544.13;5056845;28;20111;-30
2024/01/27 09:20:22;;;;;;;14.75;9.70;;;;;;;13.75;56.51;97542.41;5060444;28;20021;-30
2024/01/27 09:22:49;;;;;;;13.00;9.20;;;;;;;14.17;55.77;97557.13;5054984;28;20048;-33
2024/01/27 09:25:15;;;;;;;13.90;8.45;;;;;;;14.23;55.63;97547.25;5055103;28;20021;-31
2024/01/27 09:27:41;;;;;;;11.25;7.93;;;;;;;14.33;55.11;97559.91;5054681;28;20515;-31
2024/01/27 09:30:07;;;;;;;11.20;7.65;;;;;;;14.55;54.60;97562.94;5055296;28;20025;-31
2024/01/27 09:32:33;;;;;;;10.18;7.40;;;;;;;15.00;53.36;97575.94;5054642;28;20071;-33
2024/01/27 09:34:58;;;;;;;12.27;7.07;;;;;;;15.26;52.61;97561.22;5055249;28;20053;-32
2024/01/27 09:37:24;;;;;;;13.05;7.47;;;;;;;15.71;51.70;97557.72;5055030;28;20023;-32
2024/01/27 09:39:49;;;;;;;9.48;6.78;;;;;;;15.91;50.79;97558.34;5037102;28;20071;-32
2024/01/27 09:42:15;;;;;;;9.98;7.28;;;;;;;15.80;50.86;97558.63;5054727;28;20041;-32
2024/01/27 09:44:46;;;;;;;11.50;7.78;;;;;;;15.85;51.00;97551.06;5054392;28;20489;-32
2024/01/27 09:47:13;;;;;;;12.82;7.93;;;;;;;15.82;50.83;97557.44;5054841;28;20036;-32
2024/01/27 09:49:40;;;;;;;11.75;7.82;;;;;;;15.92;50.93;97556.38;5054491;28;20346;-32
2024/01/27 09:52:06;;;;;;;15.10;8.60;;;;;;;16.09;50.34;97552.34;5054683;28;20021;-32
2024/01/27 09:54:31;;;;;;;13.48;8.32;;;;;;;15.99;50.28;97558.88;5061787;28;20070;-33
2024/01/27 09:56:57;;;;;;;12.25;7.03;;;;;;;16.19;50.00;97554.00;5054471;28;20021;-32
2024/01/27 09:59:25;;;;;;;12.00;7.15;;;;;;;16.10;49.89;97551.13;5054352;28;20085;-32
2024/01/27 10:01:52;;;;;;;13.02;8.05;;;;;;;16.35;49.35;97558.63;5054039;28;20048;-32
2024/01/27 10:04:20;;;;;;;12.73;8.13;;;;;;;16.42;49.04;97564.66;5054011;28;20032;-32
2024/01/27 10:06:47;;;;;;;12.43;6.93;;;;;;;16.47;48.88;97564.09;5053726;28;20055;-34
2024/01/27 10:09:14;;;;;;;10.43;6.82;;;;;;;16.15;49.54;97559.59;5053915;28;20094;-32
2024/01/27 10:11:45;;;;;;;10.88;6.78;;;;;;;16.30;49.40;97559.16;5054274;28;20488;-33
2024/01/27 10:14:10;;;;;;;11.23;6.60;;;;;;;15.96;50.44;97562.47;5054603;28;20028;-33
2024/01/27 10:16:43;;;;;;;9.75;5.70;;;;;;;15.82;50.83;97563.69;5053946;28;20066;-35
2024/01/27 10:19:16;;;;;;;8.25;6.03;;;;;;;15.67;51.15;97568.75;5053849;28;20024;-33
2024/01/27 10:21:41;;;;;;;9.73;6.20;;;;;;;15.69;51.11;97558.16;5053676;28;20017;-33
2024/01/27 10:24:08;;;;;;;11.52;6.45;;;;;;;15.71;51.19;97563.94;5061175;28;20025;-32
2024/01/27 10:26:34;;;;;;;10.20;5.93;;;;;;;15.53;51.55;97557.41;5053863;28;20021;-33
2024/01/27 10:29:01;;;;;;;9.07;5.45;;;;;;;15.42;51.91;97558.47;5053960;28;20109;-32
2024/01/27 10:31:33;;;;;;;7.78;4.85;;;;;;;15.36;51.29;97554.72;5053479;28;20021;-32
2024/01/27 10:33:58;;;;;;;9.88;5.43;;;;;;;15.43;51.43;97551.81;5053706;28;20063;-32
2024/01/27 10:36:26;;;;;;;8.55;5.03;;;;;;;15.16;51.82;97550.56;5053456;28;20562;-33
2024/01/27 10:38:51;;;;;;;12.25;6.53;;;;;;;14.98;52.18;97543.56;5053738;28;20025;-32
2024/01/27 10:41:23;;;;;;;9.13;5.18;;;;;;;14.89;52.56;97546.16;5053803;28;20025;-32
2024/01/27 10:43:51;;;;;;;10.57;5.72;;;;;;;14.92;53.32;97550.75;5053926;28;20025;-32
2024/01/27 10:46:21;;;;;;;7.30;4.88;;;;;;;14.87;53.05;97543.06;5053664;28;20412;-31
2024/01/27 10:48:51;;;;;;;8.27;5.22;;;;;;;14.94;53.03;97550.34;5053440;28;20028;-32
2024/01/27 10:51:22;;;;;;;7.18;5.22;;;;;;;14.86;53.13;97546.22;5054041;28;20032;-33
2024/01/27 10:53:52;;;;;;;8.90;5.57;;;;;;;14.87;52.98;97539.56;5053490;28;20032;-32
2024/01/27 10:56:19;;;;;;;12.38;5.75;;;;;;;14.89;53.19;97537.19;5054360;28;20509;-32
2024/01/27 10:58:46;;;;;;;11.93;6.40;;;;;;;14.58;53.52;97542.22;5061146;28;20035;-32
2024/01/27 11:01:13;;;;;;;9.60;6.30;;;;;;;14.74;53.72;97542.22;5053059;28;20098;-32
2024/01/27 11:03:39;;;;;;;11.38;6.03;;;;;;;14.77;52.79;97546.84;5053251;28;20029;-32
2024/01/27 11:06:11;;;;;;;11.45;5.35;;;;;;;14.77;53.53;97540.59;5053484;28;20025;-32
2024/01/27 11:08:39;;;;;;;7.45;5.32;;;;;;;14.73;53.51;97546.13;5053673;28;20028;-32
2024/01/27 11:11:04;;;;;;;9.13;5.53;;;;;;;14.81;53.10;97547.53;5053404;28;20017;-32
2024/01/27 11:13:33;;;;;;;7.60;5.00;;;;;;;14.79;52.85;97541.72;5053986;28;20414;-32
2024/01/27 11:15:58;;;;;;;8.32;4.45;;;;;;;14.80;53.18;97542.47;5053346;28;20109;-32
2024/01/27 11:18:25;;;;;;;8.02;5.07;;;;;;;14.55;54.04;97537.63;5055069;28;20104;-32
2024/01/27 11:20:54;;;;;;;8.02;5.13;;;;;;;14.64;53.54;97533.09;5057577;28;20024;-32